TimeHST,TemperatureF,Dew PointF,Humidity,Sea Level PressureIn,VisibilityMPH,Wind Direction,Wind SpeedMPH,Gust SpeedMPH,PrecipitationIn,Events,Conditions,WindDirDegrees,DateUTC
12:03 AM,70.0,66.0,87,29.94,10.0,WNW,10.4,-,N/A,,Overcast,300,2013-09-14 10:03:00
12:33 AM,70.0,66.0,87,29.93,10.0,SW,4.6,-,N/A,,Scattered Clouds,230,2013-09-14 10:33:00
12:53 AM,70.0,66.0,87,29.92,10.0,WSW,5.8,-,N/A,,Mostly Cloudy,240,2013-09-14 10:53:00
1:25 AM,71.1,66.9,87,29.91,10.0,Calm,Calm,-,N/A,,Overcast,0,2013-09-14 11:25:00
1:53 AM,73.0,69.1,87,29.90,5.0,West,6.9,-,0.00,Rain,Light Rain,280,2013-09-14 11:53:00
2:53 AM,72.0,66.9,84,29.88,10.0,WSW,6.9,-,0.02,,Overcast,240,2013-09-14 12:53:00
3:53 AM,71.1,66.9,87,29.88,10.0,SW,5.8,-,N/A,,Mostly Cloudy,230,2013-09-14 13:53:00
4:10 AM,71.1,66.9,87,29.88,10.0,SW,4.6,-,N/A,,Scattered Clouds,230,2013-09-14 14:10:00
4:53 AM,71.1,66.0,84,29.89,10.0,SW,5.8,-,N/A,,Overcast,220,2013-09-14 14:53:00
5:53 AM,71.1,64.9,81,29.91,10.0,SSW,3.5,-,N/A,,Overcast,210,2013-09-14 15:53:00
6:53 AM,73.0,64.0,73,29.90,10.0,SW,6.9,-,N/A,,Overcast,230,2013-09-14 16:53:00
7:53 AM,77.0,64.9,66,29.91,10.0,WSW,3.5,-,N/A,,Mostly Cloudy,240,2013-09-14 17:53:00
8:53 AM,81.0,66.9,62,29.92,10.0,ESE,3.5,-,N/A,,Mostly Cloudy,120,2013-09-14 18:53:00
9:53 AM,84.9,69.1,59,29.93,10.0,NE,6.9,-,N/A,,Scattered Clouds,50,2013-09-14 19:53:00
10:53 AM,84.9,70.0,61,29.92,10.0,NNE,8.1,-,N/A,,Scattered Clouds,30,2013-09-14 20:53:00
11:53 AM,84.0,72.0,67,29.91,10.0,NNE,10.4,-,N/A,,Scattered Clouds,30,2013-09-14 21:53:00
12:53 PM,86.0,69.1,57,29.88,10.0,ENE,5.8,-,N/A,,Clear,60,2013-09-14 22:53:00
1:53 PM,87.1,69.1,55,29.86,10.0,ENE,11.5,-,N/A,,Mostly Cloudy,60,2013-09-14 23:53:00
2:53 PM,84.0,69.1,61,29.86,10.0,ENE,10.4,-,N/A,,Mostly Cloudy,60,2013-09-15 00:53:00
3:53 PM,82.0,69.1,65,29.87,10.0,ENE,8.1,-,N/A,,Mostly Cloudy,60,2013-09-15 01:53:00
4:53 PM,82.0,70.0,67,29.88,10.0,ESE,10.4,-,N/A,,Overcast,110,2013-09-15 02:53:00
5:27 PM,80.1,70.0,71,29.89,10.0,East,5.8,-,N/A,,Overcast,90,2013-09-15 03:27:00
5:53 PM,79.0,70.0,74,29.90,10.0,ESE,5.8,-,N/A,,Scattered Clouds,110,2013-09-15 03:53:00
6:53 PM,78.1,70.0,76,29.92,10.0,Calm,Calm,-,N/A,,Partly Cloudy,0,2013-09-15 04:53:00
7:53 PM,77.0,71.1,82,29.94,10.0,Calm,Calm,-,N/A,,Overcast,0,2013-09-15 05:53:00
8:53 PM,77.0,71.1,82,29.96,10.0,WSW,5.8,-,N/A,,Scattered Clouds,240,2013-09-15 06:53:00
9:09 PM,77.0,71.1,82,29.96,10.0,WSW,4.6,-,0.00,Rain,Light Rain,250,2013-09-15 07:09:00
9:26 PM,77.0,71.1,82,29.96,10.0,Calm,Calm,-,0.00,,Overcast,0,2013-09-15 07:26:00
9:53 PM,77.0,70.0,79,29.97,10.0,WSW,3.5,-,0.00,,Overcast,240,2013-09-15 07:53:00
10:06 PM,77.0,70.0,79,29.97,10.0,Calm,Calm,-,N/A,,Overcast,0,2013-09-15 08:06:00
10:53 PM,75.9,71.1,85,29.96,10.0,WSW,3.5,-,N/A,,Mostly Cloudy,240,2013-09-15 08:53:00
11:53 PM,73.9,69.1,85,29.95,10.0,WSW,5.8,-,N/A,,Clear,250,2013-09-15 09:53:00